createdAt,value
2023-05-13T00:00:01.460Z,1.00
2023-05-13T00:02:28.544Z,1.00
2023-05-13T00:04:56.881Z,1.00
2023-05-13T00:07:23.874Z,1.00
2023-05-13T00:09:51.493Z,1.00
2023-05-13T00:12:18.426Z,1.00
2023-05-13T00:14:46.187Z,1.00
2023-05-13T00:17:13.325Z,1.00
2023-05-13T00:19:40.929Z,1.00
2023-05-13T00:22:07.884Z,1.00
2023-05-13T00:24:35.235Z,1.00
2023-05-13T00:27:02.309Z,1.00
2023-05-13T00:29:31.481Z,1.00
2023-05-13T00:31:58.926Z,1.00
2023-05-13T00:34:26.348Z,1.00
2023-05-13T00:36:53.319Z,1.00
2023-05-13T00:39:20.516Z,1.00
2023-05-13T00:41:47.491Z,1.00
2023-05-13T00:44:14.769Z,1.00
2023-05-13T00:46:42.366Z,1.00
2023-05-13T00:49:09.717Z,1.00
2023-05-13T00:51:37.204Z,1.00
2023-05-13T00:54:04.982Z,1.00
2023-05-13T00:56:31.904Z,1.00
2023-05-13T00:58:59.189Z,1.00
2023-05-13T01:01:38.537Z,1.00
2023-05-13T01:04:31.064Z,1.00
2023-05-13T01:07:06.708Z,1.00
2023-05-13T01:09:46.769Z,1.00
2023-05-13T01:12:21.726Z,1.00
2023-05-13T01:14:55.629Z,1.00
2023-05-13T01:17:32.008Z,1.00
2023-05-13T01:20:03.470Z,1.00
2023-05-13T01:22:30.796Z,1.00
2023-05-13T01:24:58.163Z,1.00
2023-05-13T01:27:25.968Z,1.00
2023-05-13T01:29:54.947Z,1.00
2023-05-13T01:32:23.601Z,1.00
2023-05-13T01:34:52.625Z,1.00
2023-05-13T01:37:20.796Z,1.00
2023-05-13T01:39:48.594Z,5.60
2023-05-13T01:42:16.047Z,9.50
2023-05-13T01:44:43.283Z,21.70
2023-05-13T01:47:10.191Z,21.50
2023-05-13T01:49:37.445Z,35.50
2023-05-13T01:52:04.760Z,45.20
2023-05-13T01:54:32.368Z,59.20
2023-05-13T01:56:59.327Z,79.30
2023-05-13T01:59:26.741Z,99.90
2023-05-13T02:01:53.713Z,99.90
2023-05-13T02:04:21.477Z,99.90
2023-05-13T02:06:48.624Z,99.90
2023-05-13T02:09:16.304Z,99.90
2023-05-13T02:11:43.452Z,99.90
2023-05-13T02:14:10.665Z,99.90
2023-05-13T02:16:37.772Z,99.90
2023-05-13T02:19:05.177Z,99.90
2023-05-13T02:21:32.300Z,99.90
2023-05-13T02:23:59.544Z,99.90
2023-05-13T02:26:26.447Z,99.90
2023-05-13T02:28:53.665Z,99.90
2023-05-13T02:31:20.839Z,99.90
2023-05-13T02:33:48.102Z,99.90
2023-05-13T02:36:15.012Z,99.90
2023-05-13T02:38:42.347Z,99.90
2023-05-13T02:41:11.392Z,99.90
2023-05-13T02:43:38.595Z,99.90
2023-05-13T02:46:05.715Z,99.90
2023-05-13T02:48:33.374Z,99.90
2023-05-13T02:51:00.403Z,99.90
2023-05-13T02:53:28.146Z,99.90
2023-05-13T02:55:55.077Z,99.90
2023-05-13T02:58:22.526Z,99.90
2023-05-13T03:00:49.508Z,99.90
2023-05-13T03:03:17.182Z,99.90
2023-05-13T03:05:44.192Z,99.90
2023-05-13T03:08:11.806Z,99.90
2023-05-13T03:10:38.808Z,99.90
2023-05-13T03:13:06.089Z,99.90
2023-05-13T03:15:33.128Z,99.90
2023-05-13T03:18:00.464Z,99.90
2023-05-13T03:20:27.502Z,1.00
2023-05-13T03:22:54.792Z,4.50
2023-05-13T03:25:21.787Z,3.30
2023-05-13T03:27:49.063Z,1.00
2023-05-13T03:30:16.125Z,1.00
2023-05-13T03:32:43.555Z,1.00
2023-05-13T03:35:10.693Z,1.00
2023-05-13T03:37:38.119Z,1.00
2023-05-13T03:40:06.059Z,1.00
2023-05-13T03:42:33.608Z,1.00
2023-05-13T03:45:00.687Z,1.00
2023-05-13T03:47:28.537Z,1.00
2023-05-13T03:49:55.525Z,99.90
2023-05-13T03:52:22.909Z,99.90
2023-05-13T03:54:49.933Z,99.90
2023-05-13T03:57:17.530Z,1.00
2023-05-13T03:59:44.680Z,1.00
2023-05-13T04:02:12.385Z,1.00
2023-05-13T04:04:39.485Z,1.00
2023-05-13T04:07:06.932Z,99.90
2023-05-13T04:09:34.093Z,99.90
2023-05-13T04:12:02.024Z,99.90
2023-05-13T04:14:29.242Z,99.90
2023-05-13T04:16:56.742Z,99.90
2023-05-13T04:19:23.970Z,99.90
2023-05-13T04:21:51.639Z,99.90
2023-05-13T04:24:18.840Z,99.90
2023-05-13T04:26:46.368Z,1.00
2023-05-13T04:29:13.619Z,1.00
2023-05-13T04:31:41.540Z,1.00
2023-05-13T04:34:08.854Z,1.00
2023-05-13T04:36:36.255Z,1.00
2023-05-13T04:39:03.524Z,99.90
2023-05-13T04:41:31.011Z,99.90
2023-05-13T04:43:58.321Z,99.90
2023-05-13T04:46:26.262Z,99.90
2023-05-13T04:48:53.451Z,99.90
2023-05-13T04:51:21.422Z,99.90
2023-05-13T04:53:48.945Z,99.90
2023-05-13T04:56:17.286Z,99.90
2023-05-13T04:58:44.228Z,99.90
2023-05-13T05:01:11.430Z,99.90
2023-05-13T05:03:38.442Z,99.90
2023-05-13T05:06:06.370Z,99.90
2023-05-13T05:08:33.453Z,99.90
2023-05-13T05:11:01.819Z,99.90
2023-05-13T05:13:28.873Z,99.90
2023-05-13T05:15:56.463Z,99.90
2023-05-13T05:18:23.566Z,99.90
2023-05-13T05:20:51.243Z,99.90
2023-05-13T05:23:18.297Z,99.90
2023-05-13T05:25:45.728Z,99.90
2023-05-13T05:28:12.750Z,99.90
2023-05-13T05:30:40.220Z,99.90
2023-05-13T05:33:08.219Z,99.90
2023-05-13T05:35:38.238Z,99.90
2023-05-13T05:38:05.768Z,99.90
2023-05-13T05:40:34.866Z,99.90
2023-05-13T05:43:01.880Z,99.00
2023-05-13T05:45:29.358Z,99.90
2023-05-13T05:47:57.854Z,74.50
2023-05-13T05:50:25.457Z,69.00
2023-05-13T05:52:52.435Z,51.70
2023-05-13T05:55:20.353Z,46.30
2023-05-13T05:57:47.589Z,54.30
2023-05-13T06:00:15.401Z,48.30
2023-05-13T06:02:42.720Z,23.60
2023-05-13T06:05:10.547Z,21.00
2023-05-13T06:07:37.642Z,1.00
2023-05-13T06:10:07.602Z,1.00
2023-05-13T06:12:35.350Z,1.00
2023-05-13T06:15:02.903Z,1.00
2023-05-13T06:17:29.918Z,1.00
2023-05-13T06:19:57.274Z,1.00
2023-05-13T06:22:24.247Z,1.00
2023-05-13T06:24:51.721Z,1.00
2023-05-13T06:27:18.693Z,1.00
2023-05-13T06:29:46.590Z,1.00
2023-05-13T06:32:13.551Z,1.00
2023-05-13T06:34:45.577Z,1.00
2023-05-13T06:37:13.696Z,1.00
2023-05-13T06:39:41.174Z,99.90
2023-05-13T06:42:08.284Z,99.90
2023-05-13T06:44:35.785Z,99.90
2023-05-13T06:47:05.843Z,99.90
2023-05-13T06:49:34.061Z,99.90
2023-05-13T06:52:01.095Z,99.90
2023-05-13T06:54:28.345Z,99.90
2023-05-13T06:56:55.725Z,99.90
2023-05-13T06:59:23.619Z,99.90
2023-05-13T07:01:50.610Z,99.90
2023-05-13T07:04:17.938Z,99.90
2023-05-13T07:06:44.993Z,99.90
2023-05-13T07:09:11.964Z,99.90
2023-05-13T07:11:39.420Z,99.90
2023-05-13T07:14:06.588Z,99.90
2023-05-13T07:16:33.884Z,99.90
2023-05-13T07:19:01.172Z,99.90
2023-05-13T07:21:30.064Z,99.90
2023-05-13T07:23:57.011Z,99.90
2023-05-13T07:26:24.484Z,99.90
2023-05-13T07:28:51.535Z,99.90
2023-05-13T07:31:19.438Z,99.90
2023-05-13T07:33:46.636Z,99.90
2023-05-13T07:36:14.468Z,99.90
2023-05-13T07:38:41.424Z,99.90
2023-05-13T07:41:08.758Z,99.90
2023-05-13T07:43:35.872Z,99.90
2023-05-13T07:46:03.541Z,99.90
2023-05-13T07:48:31.724Z,99.90
2023-05-13T07:50:59.381Z,99.90
2023-05-13T07:53:26.773Z,99.90
2023-05-13T07:55:54.620Z,99.90
2023-05-13T07:58:21.660Z,99.90
2023-05-13T08:00:51.863Z,99.90
2023-05-13T08:03:19.107Z,99.90
2023-05-13T08:05:48.079Z,99.90
2023-05-13T08:08:15.370Z,99.90
2023-05-13T08:10:43.028Z,99.90
2023-05-13T08:13:10.182Z,99.90
2023-05-13T08:15:38.284Z,99.90
2023-05-13T08:18:05.339Z,99.90
2023-05-13T08:20:33.124Z,99.90
2023-05-13T08:23:01.987Z,99.90
2023-05-13T08:25:29.525Z,99.90
2023-05-13T08:27:57.839Z,99.90
2023-05-13T08:30:25.525Z,99.90
2023-05-13T08:32:52.758Z,99.90
2023-05-13T08:35:20.774Z,99.90
2023-05-13T08:37:48.032Z,99.90
2023-05-13T08:40:16.003Z,99.90
2023-05-13T08:42:45.277Z,99.90
2023-05-13T08:45:14.770Z,99.90
2023-05-13T08:47:52.556Z,99.90
2023-05-13T08:50:20.921Z,99.90
2023-05-13T08:52:50.425Z,99.90
2023-05-13T08:55:18.863Z,99.90
2023-05-13T08:57:46.049Z,99.90
2023-05-13T09:00:14.770Z,99.90
2023-05-13T09:02:42.361Z,99.90
2023-05-13T09:05:11.191Z,99.90
2023-05-13T09:07:39.101Z,99.90
2023-05-13T09:10:08.081Z,99.90
2023-05-13T09:12:55.311Z,99.90
2023-05-13T09:15:25.205Z,99.90
2023-05-13T09:17:56.545Z,99.90
2023-05-13T09:20:26.159Z,99.90
2023-05-13T09:22:58.218Z,99.90
2023-05-13T09:25:26.277Z,99.90
2023-05-13T09:27:58.832Z,99.90
2023-05-13T09:30:28.728Z,99.90
2023-05-13T09:33:17.610Z,99.90
2023-05-13T09:35:50.108Z,99.90
2023-05-13T09:38:28.988Z,99.90
2023-05-13T09:41:02.968Z,99.90
2023-05-13T09:43:34.114Z,99.90
2023-05-13T09:46:06.033Z,99.90
2023-05-13T09:48:34.314Z,99.90
2023-05-13T09:51:02.213Z,99.90
2023-05-13T09:53:29.352Z,99.90
2023-05-13T09:56:00.075Z,99.90
2023-05-13T09:58:29.202Z,99.90
2023-05-13T10:00:57.598Z,99.90
2023-05-13T10:03:25.272Z,99.90
2023-05-13T10:05:53.793Z,99.90
2023-05-13T10:08:22.579Z,99.90
2023-05-13T10:10:55.240Z,99.90
2023-05-13T10:13:25.107Z,99.90
2023-05-13T10:15:55.134Z,99.90
2023-05-13T10:18:27.329Z,99.90
2023-05-13T10:20:55.282Z,99.90
2023-05-13T10:23:24.494Z,99.90
2023-05-13T10:25:54.375Z,99.90
2023-05-13T10:28:22.686Z,99.90
2023-05-13T10:30:54.016Z,99.90
2023-05-13T10:33:21.717Z,99.90
2023-05-13T10:36:22.084Z,99.90
2023-05-13T10:39:05.015Z,99.90
2023-05-13T10:42:04.999Z,99.90
2023-05-13T10:44:33.920Z,99.90
2023-05-13T10:47:03.165Z,99.90
2023-05-13T10:49:36.641Z,99.90
2023-05-13T10:52:08.624Z,99.90
2023-05-13T10:54:40.663Z,99.90
2023-05-13T10:57:09.256Z,99.90
2023-05-13T10:59:37.338Z,99.90
2023-05-13T11:02:37.452Z,99.90
2023-05-13T11:05:05.545Z,99.90
2023-05-13T11:07:39.134Z,99.90
2023-05-13T11:10:26.023Z,99.90
2023-05-13T11:13:20.803Z,99.90
2023-05-13T11:15:51.736Z,99.90
2023-05-13T11:18:20.863Z,99.90
2023-05-13T11:20:53.877Z,99.90
2023-05-13T11:23:22.307Z,99.90
2023-05-13T11:26:12.291Z,99.90
2023-05-13T11:28:56.309Z,99.90
2023-05-13T11:31:24.104Z,99.90
2023-05-13T11:34:14.414Z,99.90
2023-05-13T11:36:47.320Z,99.90
2023-05-13T11:39:20.730Z,99.90
2023-05-13T11:41:50.025Z,99.90
2023-05-13T11:44:20.331Z,99.90
2023-05-13T11:47:00.250Z,99.90
2023-05-13T11:49:32.933Z,99.90
2023-05-13T11:52:04.750Z,99.90
2023-05-13T11:54:32.780Z,99.90
2023-05-13T11:56:59.980Z,99.90
2023-05-13T11:59:33.355Z,99.90
2023-05-13T12:02:06.327Z,99.90
2023-05-13T12:04:34.049Z,99.90
2023-05-13T12:07:01.152Z,99.90
2023-05-13T12:09:28.486Z,99.90
2023-05-13T12:11:55.678Z,99.90
2023-05-13T12:14:25.854Z,99.90
2023-05-13T12:16:54.373Z,99.90
2023-05-13T12:19:21.917Z,99.90
2023-05-13T12:21:50.920Z,99.90
2023-05-13T12:24:20.110Z,99.90
2023-05-13T12:26:47.830Z,99.90
2023-05-13T12:29:15.711Z,99.90
2023-05-13T12:32:02.076Z,99.90
2023-05-13T12:34:35.624Z,99.90
2023-05-13T12:37:13.235Z,99.90
2023-05-13T12:39:42.009Z,99.90
2023-05-13T12:42:19.110Z,99.90
2023-05-13T12:44:47.168Z,99.90
2023-05-13T12:47:15.902Z,99.90
2023-05-13T12:49:58.444Z,99.90
2023-05-13T12:52:25.604Z,99.90
2023-05-13T12:54:53.049Z,99.90
2023-05-13T12:57:20.693Z,99.90
2023-05-13T12:59:50.995Z,99.90
2023-05-13T13:02:18.111Z,99.90
2023-05-13T13:04:45.581Z,99.90
2023-05-13T13:07:15.783Z,99.90
2023-05-13T13:09:43.544Z,99.90
2023-05-13T13:12:10.618Z,99.90
2023-05-13T13:14:38.318Z,99.90
2023-05-13T13:17:05.361Z,99.90
2023-05-13T13:19:33.051Z,99.90
2023-05-13T13:22:00.156Z,99.90
2023-05-13T13:24:27.524Z,99.90
2023-05-13T13:26:55.326Z,99.90
2023-05-13T13:29:24.176Z,99.90
2023-05-13T13:31:52.262Z,99.90
2023-05-13T13:34:20.161Z,99.90
2023-05-13T13:36:47.465Z,99.90
2023-05-13T13:39:15.104Z,99.90
2023-05-13T13:41:42.345Z,99.90
2023-05-13T13:44:10.145Z,99.90
2023-05-13T13:46:37.256Z,99.90
2023-05-13T13:49:16.269Z,99.90
2023-05-13T13:51:50.028Z,99.90
2023-05-13T13:54:17.464Z,99.90
2023-05-13T13:56:44.676Z,99.90
2023-05-13T13:59:12.324Z,99.90
2023-05-13T14:01:40.311Z,99.90
2023-05-13T14:04:13.568Z,99.90
2023-05-13T14:06:41.532Z,99.90
2023-05-13T14:09:10.511Z,99.90
2023-05-13T14:11:37.734Z,99.90
2023-05-13T14:14:05.479Z,99.90
2023-05-13T14:16:32.783Z,99.90
2023-05-13T14:19:00.616Z,99.90
2023-05-13T14:21:27.666Z,99.90
2023-05-13T14:23:55.242Z,99.90
2023-05-13T14:26:22.599Z,99.90
2023-05-13T14:28:49.968Z,99.90
2023-05-13T14:31:17.099Z,99.90
2023-05-13T14:33:44.500Z,99.90
2023-05-13T14:36:16.144Z,99.90
2023-05-13T14:38:44.493Z,99.90
2023-05-13T14:41:12.662Z,99.90
2023-05-13T14:43:39.977Z,99.90
2023-05-13T14:46:07.072Z,99.90
2023-05-13T14:48:34.762Z,99.90
2023-05-13T14:51:01.844Z,99.90
2023-05-13T14:53:29.560Z,99.90
2023-05-13T14:55:56.894Z,99.90
2023-05-13T14:58:24.681Z,99.90
2023-05-13T15:00:51.776Z,99.90
2023-05-13T15:03:19.453Z,99.90
2023-05-13T15:05:47.193Z,99.90
2023-05-13T15:08:14.801Z,99.90
2023-05-13T15:10:41.938Z,99.90
2023-05-13T15:13:10.391Z,99.90
2023-05-13T15:15:39.040Z,99.90
2023-05-13T15:18:07.110Z,99.90
2023-05-13T15:20:34.207Z,99.90
2023-05-13T15:23:01.542Z,99.90
2023-05-13T15:25:28.489Z,99.90
2023-05-13T15:27:56.004Z,99.90
2023-05-13T15:30:23.456Z,99.90
2023-05-13T15:32:51.343Z,99.90
2023-05-13T15:35:18.413Z,99.90
2023-05-13T15:37:46.504Z,99.90
2023-05-13T15:40:14.468Z,99.90
2023-05-13T15:42:42.078Z,99.90
2023-05-13T15:45:09.434Z,99.90
2023-05-13T15:47:37.514Z,99.90
2023-05-13T15:50:05.407Z,99.90
2023-05-13T15:52:33.072Z,99.90
2023-05-13T15:55:00.158Z,99.90
2023-05-13T15:57:27.753Z,99.90
2023-05-13T15:59:54.826Z,99.90
2023-05-13T16:02:22.490Z,99.90
2023-05-13T16:04:49.783Z,99.90
2023-05-13T16:07:17.372Z,99.90
2023-05-13T16:09:44.479Z,99.90
2023-05-13T16:12:12.142Z,99.90
2023-05-13T16:14:39.189Z,99.90
2023-05-13T16:17:06.815Z,99.90
2023-05-13T16:19:35.831Z,99.90
2023-05-13T16:22:31.727Z,99.90
2023-05-13T16:25:01.316Z,99.90
2023-05-13T16:27:29.746Z,99.90
2023-05-13T16:29:57.979Z,99.90
2023-05-13T16:32:27.670Z,99.90
2023-05-13T16:34:55.316Z,99.90
2023-05-13T16:37:22.654Z,99.90
2023-05-13T16:39:49.686Z,99.90
2023-05-13T16:42:19.378Z,99.90
2023-05-13T16:44:47.329Z,99.90
2023-05-13T16:47:14.675Z,99.90
2023-05-13T16:49:42.666Z,99.90
2023-05-13T16:52:10.049Z,99.90
2023-05-13T16:54:37.119Z,99.90
2023-05-13T16:57:04.925Z,99.90
2023-05-13T16:59:31.974Z,99.90
2023-05-13T17:02:00.026Z,99.90
2023-05-13T17:04:28.437Z,99.90
2023-05-13T17:06:58.868Z,99.90
2023-05-13T17:09:26.251Z,99.90
2023-05-13T17:11:54.663Z,99.90
2023-05-13T17:14:22.149Z,99.90
2023-05-13T17:16:50.018Z,99.90
2023-05-13T17:19:17.052Z,99.90
2023-05-13T17:21:44.359Z,99.90
2023-05-13T17:24:11.353Z,99.90
2023-05-13T17:26:39.208Z,99.90
2023-05-13T17:29:06.462Z,99.90
2023-05-13T17:31:34.001Z,99.90
2023-05-13T17:34:01.038Z,99.90
2023-05-13T17:36:28.331Z,99.90
2023-05-13T17:38:55.317Z,99.90
2023-05-13T17:41:22.657Z,99.90
2023-05-13T17:43:49.667Z,99.90
2023-05-13T17:46:17.125Z,99.90
2023-05-13T17:48:44.170Z,99.90
2023-05-13T17:51:11.693Z,99.90
2023-05-13T17:53:38.713Z,99.90
2023-05-13T17:56:08.356Z,99.90
2023-05-13T17:58:35.413Z,99.90
2023-05-13T18:01:03.469Z,99.90
2023-05-13T18:03:30.621Z,99.90
2023-05-13T18:05:58.372Z,99.90
2023-05-13T18:08:25.627Z,99.90
2023-05-13T18:10:53.323Z,99.90
2023-05-13T18:13:20.374Z,99.90
2023-05-13T18:15:48.046Z,99.90
2023-05-13T18:18:16.317Z,99.90
2023-05-13T18:20:44.010Z,99.90
2023-05-13T18:23:10.993Z,99.90
2023-05-13T18:25:52.099Z,99.90
2023-05-13T18:28:22.008Z,99.90
2023-05-13T18:30:49.400Z,99.90
2023-05-13T18:33:16.398Z,99.90
2023-05-13T18:35:43.860Z,99.90
2023-05-13T18:38:13.804Z,99.90
2023-05-13T18:40:41.506Z,99.90
2023-05-13T18:43:08.596Z,99.90
2023-05-13T18:45:36.466Z,99.90
2023-05-13T18:48:03.973Z,99.90
2023-05-13T18:50:31.640Z,99.90
2023-05-13T18:52:58.743Z,99.90
2023-05-13T18:55:26.200Z,99.90
2023-05-13T18:57:53.380Z,99.90
2023-05-13T19:00:21.525Z,99.90
2023-05-13T19:02:48.922Z,99.90
2023-05-13T19:05:18.379Z,99.90
2023-05-13T19:07:47.117Z,99.90
2023-05-13T19:10:15.956Z,99.90
2023-05-13T19:12:43.116Z,99.90
2023-05-13T19:15:13.107Z,99.90
2023-05-13T19:17:41.843Z,99.90
2023-05-13T19:20:09.973Z,99.90
2023-05-13T19:22:39.675Z,99.90
2023-05-13T19:25:07.621Z,99.90
2023-05-13T19:27:35.974Z,99.90
2023-05-13T19:30:03.853Z,99.90
2023-05-13T19:32:31.146Z,99.90
2023-05-13T19:34:58.986Z,99.90
2023-05-13T19:37:26.468Z,99.90
2023-05-13T19:39:54.132Z,99.90
2023-05-13T19:42:21.958Z,99.90
2023-05-13T19:44:49.840Z,99.90
2023-05-13T19:47:17.213Z,99.90
2023-05-13T19:49:44.634Z,99.90
2023-05-13T19:52:11.977Z,99.90
2023-05-13T19:54:39.846Z,99.90
2023-05-13T19:57:07.698Z,99.90
2023-05-13T19:59:36.238Z,99.90
2023-05-13T20:02:03.488Z,99.90
2023-05-13T20:04:31.510Z,99.90
2023-05-13T20:06:58.591Z,99.90
2023-05-13T20:09:26.970Z,99.90
2023-05-13T20:11:54.036Z,99.90
2023-05-13T20:14:27.640Z,99.90
2023-05-13T20:16:54.938Z,99.90
2023-05-13T20:19:22.851Z,99.90
2023-05-13T20:21:49.948Z,99.90
2023-05-13T20:24:17.557Z,99.90
2023-05-13T20:26:44.583Z,99.90
2023-05-13T20:29:12.607Z,99.90
2023-05-13T20:31:42.790Z,99.90
2023-05-13T20:34:10.192Z,99.90
2023-05-13T20:36:38.834Z,99.90
2023-05-13T20:39:07.717Z,99.90
2023-05-13T20:41:35.000Z,99.90
2023-05-13T20:44:02.314Z,99.90
2023-05-13T20:46:29.518Z,99.90
2023-05-13T20:48:57.063Z,99.90
2023-05-13T20:51:24.409Z,99.90
2023-05-13T20:53:51.980Z,99.90
2023-05-13T20:56:19.159Z,99.90
2023-05-13T20:58:46.654Z,99.90
2023-05-13T21:01:13.911Z,99.90
2023-05-13T21:03:41.714Z,99.90
2023-05-13T21:06:08.987Z,99.90
2023-05-13T21:08:37.197Z,99.90
2023-05-13T21:11:05.985Z,99.90
2023-05-13T21:13:34.236Z,99.90
2023-05-13T21:16:04.440Z,99.90
2023-05-13T21:18:32.469Z,99.90
2023-05-13T21:21:00.008Z,99.90
2023-05-13T21:23:27.738Z,99.90
2023-05-13T21:25:54.993Z,99.90
2023-05-13T21:28:23.078Z,99.90
2023-05-13T21:30:50.121Z,99.90
2023-05-13T21:33:17.943Z,99.90
2023-05-13T21:35:45.094Z,99.90
2023-05-13T21:38:12.850Z,99.90
2023-05-13T21:40:40.281Z,99.90
2023-05-13T21:43:07.662Z,99.90
2023-05-13T21:45:34.900Z,99.90
2023-05-13T21:48:02.570Z,99.90
2023-05-13T21:50:29.743Z,99.90
2023-05-13T21:52:57.377Z,99.90
2023-05-13T21:55:24.509Z,99.90
2023-05-13T21:57:52.219Z,99.90
2023-05-13T22:00:19.594Z,99.90
2023-05-13T22:02:49.894Z,99.90
2023-05-13T22:05:17.376Z,99.90
2023-05-13T22:07:45.190Z,99.90
2023-05-13T22:10:12.284Z,99.90
2023-05-13T22:12:39.958Z,99.90
2023-05-13T22:15:07.654Z,99.90
2023-05-13T22:17:35.278Z,99.90
2023-05-13T22:20:02.463Z,1.00
2023-05-13T22:22:30.253Z,1.00
2023-05-13T22:24:57.257Z,1.00
2023-05-13T22:27:24.952Z,1.00
2023-05-13T22:29:52.033Z,1.00
2023-05-13T22:32:19.589Z,1.00
2023-05-13T22:34:46.566Z,1.00
2023-05-13T22:37:14.158Z,1.00
2023-05-13T22:39:41.310Z,1.00
2023-05-13T22:42:08.781Z,1.00
2023-05-13T22:44:35.817Z,1.00
2023-05-13T22:49:31.290Z,1.00
2023-05-13T22:51:58.876Z,1.00
2023-05-13T22:54:25.872Z,1.00
2023-05-13T22:56:53.226Z,1.00
2023-05-13T22:59:20.247Z,6.00
2023-05-13T23:01:47.658Z,26.00
2023-05-13T23:04:14.875Z,61.40
2023-05-13T23:06:42.575Z,88.10
2023-05-13T23:09:10.424Z,99.90
2023-05-13T23:11:37.968Z,99.90
2023-05-13T23:14:05.015Z,99.90
2023-05-13T23:16:32.775Z,99.90
2023-05-13T23:18:59.756Z,99.90
2023-05-13T23:21:27.542Z,99.90
2023-05-13T23:23:54.656Z,99.90
2023-05-13T23:26:22.213Z,99.90
2023-05-13T23:28:49.329Z,99.90
2023-05-13T23:31:17.088Z,99.90
2023-05-13T23:33:44.271Z,99.90
2023-05-13T23:36:11.600Z,99.90
2023-05-13T23:38:38.696Z,99.90
2023-05-13T23:41:06.393Z,1.00
2023-05-13T23:43:33.566Z,1.00
2023-05-13T23:46:01.181Z,1.00
2023-05-13T23:48:28.562Z,1.00
2023-05-13T23:50:56.273Z,1.00
2023-05-13T23:53:23.460Z,1.00
2023-05-13T23:55:51.385Z,1.00
2023-05-13T23:58:18.557Z,1.00
